sensor_id;sensor_type;location;lat;lon;timestamp;P1;durP1;ratioP1;P2;durP2;ratioP2
787;SDS011;16074;42.708;23.312;2023-06-01T00:02:27;15.43;;;14.03;;
787;SDS011;16074;42.708;23.312;2023-06-01T00:04:56;13.70;;;12.30;;
787;SDS011;16074;42.708;23.312;2023-06-01T00:07:24;12.20;;;11.20;;
787;SDS011;16074;42.708;23.312;2023-06-01T00:09:54;16.17;;;12.03;;
787;SDS011;16074;42.708;23.312;2023-06-01T00:12:22;14.63;;;13.20;;
787;SDS011;16074;42.708;23.312;2023-06-01T00:14:51;13.77;;;12.37;;
787;SDS011;16074;42.708;23.312;2023-06-01T00:17:19;14.30;;;12.97;;
787;SDS011;16074;42.708;23.312;2023-06-01T00:19:49;14.30;;;12.80;;
787;SDS011;16074;42.708;23.312;2023-06-01T00:22:19;13.70;;;12.50;;
787;SDS011;16074;42.708;23.312;2023-06-01T00:24:50;12.03;;;11.03;;
787;SDS011;16074;42.708;23.312;2023-06-01T00:27:20;14.30;;;12.80;;
787;SDS011;16074;42.708;23.312;2023-06-01T00:29:48;12.27;;;11.27;;
787;SDS011;16074;42.708;23.312;2023-06-01T00:32:17;13.93;;;12.63;;
787;SDS011;16074;42.708;23.312;2023-06-01T00:34:46;14.47;;;13.17;;
787;SDS011;16074;42.708;23.312;2023-06-01T00:37:14;13.97;;;12.87;;
787;SDS011;16074;42.708;23.312;2023-06-01T00:39:43;18.30;;;12.97;;
787;SDS011;16074;42.708;23.312;2023-06-01T00:42:12;15.07;;;13.50;;
787;SDS011;16074;42.708;23.312;2023-06-01T00:44:41;13.73;;;12.53;;
787;SDS011;16074;42.708;23.312;2023-06-01T00:47:10;15.33;;;13.93;;
787;SDS011;16074;42.708;23.312;2023-06-01T00:49:38;13.43;;;12.33;;
787;SDS011;16074;42.708;23.312;2023-06-01T00:52:07;16.90;;;15.20;;
787;SDS011;16074;42.708;23.312;2023-06-01T00:54:36;18.40;;;14.27;;
787;SDS011;16074;42.708;23.312;2023-06-01T00:57:05;16.60;;;15.10;;
787;SDS011;16074;42.708;23.312;2023-06-01T00:59:34;16.87;;;15.03;;
787;SDS011;16074;42.708;23.312;2023-06-01T01:02:05;16.70;;;14.97;;
787;SDS011;16074;42.708;23.312;2023-06-01T01:04:34;16.90;;;15.10;;
787;SDS011;16074;42.708;23.312;2023-06-01T01:07:06;19.50;;;15.67;;
787;SDS011;16074;42.708;23.312;2023-06-01T01:09:49;27.50;;;17.50;;
787;SDS011;16074;42.708;23.312;2023-06-01T01:12:26;19.33;;;16.40;;
787;SDS011;16074;42.708;23.312;2023-06-01T01:14:59;26.00;;;17.33;;
787;SDS011;16074;42.708;23.312;2023-06-01T01:17:38;30.10;;;19.17;;
787;SDS011;16074;42.708;23.312;2023-06-01T01:20:12;28.63;;;18.10;;
787;SDS011;16074;42.708;23.312;2023-06-01T01:23:00;19.13;;;17.13;;
787;SDS011;16074;42.708;23.312;2023-06-01T01:25:49;22.73;;;17.87;;
787;SDS011;16074;42.708;23.312;2023-06-01T01:28:35;44.57;;;19.97;;
787;SDS011;16074;42.708;23.312;2023-06-01T01:31:09;27.20;;;17.40;;
787;SDS011;16074;42.708;23.312;2023-06-01T01:33:39;23.60;;;17.20;;
787;SDS011;16074;42.708;23.312;2023-06-01T01:36:09;24.87;;;18.37;;
787;SDS011;16074;42.708;23.312;2023-06-01T01:38:39;24.17;;;18.93;;
787;SDS011;16074;42.708;23.312;2023-06-01T01:41:07;40.53;;;21.53;;
787;SDS011;16074;42.708;23.312;2023-06-01T01:43:37;63.13;;;24.60;;
787;SDS011;16074;42.708;23.312;2023-06-01T01:46:10;87.13;;;26.17;;
787;SDS011;16074;42.708;23.312;2023-06-01T01:48:48;29.03;;;20.90;;
787;SDS011;16074;42.708;23.312;2023-06-01T01:51:24;56.77;;;24.40;;
787;SDS011;16074;42.708;23.312;2023-06-01T01:53:57;35.50;;;22.17;;
787;SDS011;16074;42.708;23.312;2023-06-01T01:56:28;34.03;;;21.80;;
787;SDS011;16074;42.708;23.312;2023-06-01T01:58:58;35.13;;;22.07;;
787;SDS011;16074;42.708;23.312;2023-06-01T02:01:28;34.00;;;22.60;;
787;SDS011;16074;42.708;23.312;2023-06-01T02:04:00;43.53;;;24.90;;
787;SDS011;16074;42.708;23.312;2023-06-01T02:06:29;38.17;;;24.43;;
787;SDS011;16074;42.708;23.312;2023-06-01T02:08:59;26.70;;;21.87;;
787;SDS011;16074;42.708;23.312;2023-06-01T02:11:28;27.90;;;23.63;;
787;SDS011;16074;42.708;23.312;2023-06-01T02:13:56;29.97;;;23.83;;
787;SDS011;16074;42.708;23.312;2023-06-01T02:16:26;28.33;;;24.00;;
787;SDS011;16074;42.708;23.312;2023-06-01T02:18:55;37.70;;;25.27;;
787;SDS011;16074;42.708;23.312;2023-06-01T02:21:25;27.90;;;23.63;;
787;SDS011;16074;42.708;23.312;2023-06-01T02:23:58;32.63;;;26.23;;
787;SDS011;16074;42.708;23.312;2023-06-01T02:26:31;31.20;;;25.23;;
787;SDS011;16074;42.708;23.312;2023-06-01T02:28:59;28.23;;;24.03;;
787;SDS011;16074;42.708;23.312;2023-06-01T02:31:33;31.03;;;24.27;;
787;SDS011;16074;42.708;23.312;2023-06-01T02:34:02;36.07;;;24.80;;
787;SDS011;16074;42.708;23.312;2023-06-01T02:36:30;27.20;;;24.30;;
787;SDS011;16074;42.708;23.312;2023-06-01T02:38:59;29.30;;;25.73;;
787;SDS011;16074;42.708;23.312;2023-06-01T02:41:27;35.13;;;24.37;;
787;SDS011;16074;42.708;23.312;2023-06-01T02:43:56;32.90;;;26.70;;
787;SDS011;16074;42.708;23.312;2023-06-01T02:46:25;32.23;;;25.87;;
787;SDS011;16074;42.708;23.312;2023-06-01T02:48:56;39.00;;;25.40;;
787;SDS011;16074;42.708;23.312;2023-06-01T02:51:24;29.07;;;23.57;;
787;SDS011;16074;42.708;23.312;2023-06-01T02:54:02;36.67;;;25.80;;
787;SDS011;16074;42.708;23.312;2023-06-01T02:56:31;37.63;;;27.07;;
787;SDS011;16074;42.708;23.312;2023-06-01T02:59:17;32.83;;;26.60;;
787;SDS011;16074;42.708;23.312;2023-06-01T03:01:51;29.17;;;23.90;;
787;SDS011;16074;42.708;23.312;2023-06-01T03:04:21;40.43;;;25.43;;
787;SDS011;16074;42.708;23.312;2023-06-01T03:06:49;35.93;;;24.93;;
787;SDS011;16074;42.708;23.312;2023-06-01T03:09:24;30.50;;;25.20;;
787;SDS011;16074;42.708;23.312;2023-06-01T03:12:00;34.70;;;25.90;;
787;SDS011;16074;42.708;23.312;2023-06-01T03:14:30;31.90;;;25.10;;
787;SDS011;16074;42.708;23.312;2023-06-01T03:16:58;32.37;;;27.57;;
787;SDS011;16074;42.708;23.312;2023-06-01T03:19:29;36.97;;;25.90;;
787;SDS011;16074;42.708;23.312;2023-06-01T03:22:00;32.87;;;26.07;;
787;SDS011;16074;42.708;23.312;2023-06-01T03:24:29;39.87;;;26.90;;
787;SDS011;16074;42.708;23.312;2023-06-01T03:27:01;34.70;;;28.13;;
787;SDS011;16074;42.708;23.312;2023-06-01T03:29:33;37.50;;;28.73;;
787;SDS011;16074;42.708;23.312;2023-06-01T03:32:02;35.23;;;28.00;;
787;SDS011;16074;42.708;23.312;2023-06-01T03:34:32;37.00;;;28.73;;
787;SDS011;16074;42.708;23.312;2023-06-01T03:37:03;33.80;;;27.17;;
787;SDS011;16074;42.708;23.312;2023-06-01T03:39:32;34.33;;;28.77;;
787;SDS011;16074;42.708;23.312;2023-06-01T03:42:05;33.97;;;26.33;;
787;SDS011;16074;42.708;23.312;2023-06-01T03:44:35;37.60;;;27.37;;
787;SDS011;16074;42.708;23.312;2023-06-01T03:47:05;34.50;;;25.97;;
787;SDS011;16074;42.708;23.312;2023-06-01T03:49:35;31.97;;;27.27;;
787;SDS011;16074;42.708;23.312;2023-06-01T03:52:07;34.70;;;27.87;;
787;SDS011;16074;42.708;23.312;2023-06-01T03:54:36;36.67;;;30.63;;
787;SDS011;16074;42.708;23.312;2023-06-01T03:57:15;34.83;;;27.57;;
787;SDS011;16074;42.708;23.312;2023-06-01T03:59:43;36.97;;;28.97;;
787;SDS011;16074;42.708;23.312;2023-06-01T04:02:12;32.50;;;26.80;;
787;SDS011;16074;42.708;23.312;2023-06-01T04:04:42;40.30;;;30.77;;
787;SDS011;16074;42.708;23.312;2023-06-01T04:07:12;33.60;;;28.70;;
787;SDS011;16074;42.708;23.312;2023-06-01T04:09:45;33.67;;;27.20;;
787;SDS011;16074;42.708;23.312;2023-06-01T04:12:14;34.27;;;27.30;;
787;SDS011;16074;42.708;23.312;2023-06-01T04:14:43;36.07;;;25.73;;
787;SDS011;16074;42.708;23.312;2023-06-01T04:17:11;31.37;;;26.40;;
787;SDS011;16074;42.708;23.312;2023-06-01T04:19:41;28.63;;;23.57;;
787;SDS011;16074;42.708;23.312;2023-06-01T04:22:10;25.37;;;22.30;;
787;SDS011;16074;42.708;23.312;2023-06-01T04:24:38;31.10;;;24.00;;
787;SDS011;16074;42.708;23.312;2023-06-01T04:27:07;22.40;;;20.10;;
787;SDS011;16074;42.708;23.312;2023-06-01T04:29:35;23.53;;;21.00;;
787;SDS011;16074;42.708;23.312;2023-06-01T04:32:07;25.13;;;22.23;;
787;SDS011;16074;42.708;23.312;2023-06-01T04:34:37;29.37;;;24.10;;
787;SDS011;16074;42.708;23.312;2023-06-01T04:37:07;28.30;;;23.17;;
787;SDS011;16074;42.708;23.312;2023-06-01T04:39:38;28.00;;;23.60;;
787;SDS011;16074;42.708;23.312;2023-06-01T04:42:08;28.97;;;24.00;;
787;SDS011;16074;42.708;23.312;2023-06-01T04:44:40;31.33;;;26.27;;
787;SDS011;16074;42.708;23.312;2023-06-01T04:47:09;31.43;;;24.47;;
787;SDS011;16074;42.708;23.312;2023-06-01T04:49:39;32.53;;;25.50;;
787;SDS011;16074;42.708;23.312;2023-06-01T04:52:10;28.57;;;24.57;;
787;SDS011;16074;42.708;23.312;2023-06-01T04:54:39;31.03;;;26.10;;
787;SDS011;16074;42.708;23.312;2023-06-01T04:57:07;31.43;;;24.63;;
787;SDS011;16074;42.708;23.312;2023-06-01T04:59:37;31.53;;;25.47;;
787;SDS011;16074;42.708;23.312;2023-06-01T05:02:05;34.03;;;25.97;;
787;SDS011;16074;42.708;23.312;2023-06-01T05:04:34;29.77;;;25.27;;
787;SDS011;16074;42.708;23.312;2023-06-01T05:07:03;28.10;;;24.10;;
787;SDS011;16074;42.708;23.312;2023-06-01T05:09:33;32.13;;;26.90;;
787;SDS011;16074;42.708;23.312;2023-06-01T05:12:02;38.73;;;27.23;;
787;SDS011;16074;42.708;23.312;2023-06-01T05:14:31;30.00;;;26.90;;
787;SDS011;16074;42.708;23.312;2023-06-01T05:16:59;29.57;;;25.63;;
787;SDS011;16074;42.708;23.312;2023-06-01T05:19:27;29.53;;;25.07;;
787;SDS011;16074;42.708;23.312;2023-06-01T05:21:57;34.00;;;29.60;;
787;SDS011;16074;42.708;23.312;2023-06-01T05:24:25;31.27;;;27.47;;
787;SDS011;16074;42.708;23.312;2023-06-01T05:26:55;33.57;;;26.80;;
787;SDS011;16074;42.708;23.312;2023-06-01T05:29:23;34.37;;;27.73;;
787;SDS011;16074;42.708;23.312;2023-06-01T05:31:52;33.03;;;28.40;;
787;SDS011;16074;42.708;23.312;2023-06-01T05:34:20;29.93;;;26.13;;
787;SDS011;16074;42.708;23.312;2023-06-01T05:36:49;37.47;;;29.97;;
787;SDS011;16074;42.708;23.312;2023-06-01T05:39:17;33.97;;;28.50;;
787;SDS011;16074;42.708;23.312;2023-06-01T05:41:46;34.77;;;28.37;;
787;SDS011;16074;42.708;23.312;2023-06-01T05:44:15;32.10;;;27.27;;
787;SDS011;16074;42.708;23.312;2023-06-01T05:46:44;35.00;;;28.40;;
787;SDS011;16074;42.708;23.312;2023-06-01T05:49:13;31.40;;;26.83;;
787;SDS011;16074;42.708;23.312;2023-06-01T05:51:41;34.53;;;27.83;;
787;SDS011;16074;42.708;23.312;2023-06-01T05:54:10;31.90;;;28.60;;
787;SDS011;16074;42.708;23.312;2023-06-01T05:56:38;32.10;;;26.20;;
787;SDS011;16074;42.708;23.312;2023-06-01T05:59:09;32.37;;;28.87;;
787;SDS011;16074;42.708;23.312;2023-06-01T06:01:39;30.73;;;27.43;;
787;SDS011;16074;42.708;23.312;2023-06-01T06:04:09;33.43;;;27.40;;
787;SDS011;16074;42.708;23.312;2023-06-01T06:06:37;35.00;;;29.80;;
787;SDS011;16074;42.708;23.312;2023-06-01T06:09:06;36.87;;;31.37;;
787;SDS011;16074;42.708;23.312;2023-06-01T06:11:34;40.77;;;31.57;;
787;SDS011;16074;42.708;23.312;2023-06-01T06:14:03;37.23;;;31.33;;
787;SDS011;16074;42.708;23.312;2023-06-01T06:16:31;36.27;;;28.43;;
787;SDS011;16074;42.708;23.312;2023-06-01T06:19:01;33.17;;;29.67;;
787;SDS011;16074;42.708;23.312;2023-06-01T06:21:29;35.40;;;30.40;;
787;SDS011;16074;42.708;23.312;2023-06-01T06:23:58;31.60;;;28.40;;
787;SDS011;16074;42.708;23.312;2023-06-01T06:26:26;29.20;;;26.10;;
787;SDS011;16074;42.708;23.312;2023-06-01T06:28:54;31.43;;;28.37;;
787;SDS011;16074;42.708;23.312;2023-06-01T06:31:23;29.40;;;25.50;;
787;SDS011;16074;42.708;23.312;2023-06-01T06:33:51;27.60;;;24.30;;
787;SDS011;16074;42.708;23.312;2023-06-01T06:36:21;34.10;;;26.20;;
787;SDS011;16074;42.708;23.312;2023-06-01T06:38:49;29.37;;;26.27;;
787;SDS011;16074;42.708;23.312;2023-06-01T06:41:17;31.87;;;26.13;;
787;SDS011;16074;42.708;23.312;2023-06-01T06:43:47;31.03;;;27.73;;
787;SDS011;16074;42.708;23.312;2023-06-01T06:46:16;30.60;;;27.30;;
787;SDS011;16074;42.708;23.312;2023-06-01T06:48:44;34.17;;;28.50;;
787;SDS011;16074;42.708;23.312;2023-06-01T06:51:12;34.53;;;28.73;;
787;SDS011;16074;42.708;23.312;2023-06-01T06:53:42;33.23;;;28.73;;
787;SDS011;16074;42.708;23.312;2023-06-01T06:56:10;33.17;;;27.93;;
787;SDS011;16074;42.708;23.312;2023-06-01T06:58:38;30.70;;;27.40;;
787;SDS011;16074;42.708;23.312;2023-06-01T07:01:09;34.70;;;30.97;;
787;SDS011;16074;42.708;23.312;2023-06-01T07:03:38;32.80;;;28.80;;
787;SDS011;16074;42.708;23.312;2023-06-01T07:06:08;31.93;;;28.73;;
787;SDS011;16074;42.708;23.312;2023-06-01T07:08:36;31.50;;;28.10;;
787;SDS011;16074;42.708;23.312;2023-06-01T07:11:06;30.33;;;27.10;;
787;SDS011;16074;42.708;23.312;2023-06-01T07:13:35;31.80;;;27.90;;
787;SDS011;16074;42.708;23.312;2023-06-01T07:16:04;34.70;;;29.20;;
787;SDS011;16074;42.708;23.312;2023-06-01T07:18:33;32.80;;;29.30;;
787;SDS011;16074;42.708;23.312;2023-06-01T07:21:01;31.93;;;28.60;;
787;SDS011;16074;42.708;23.312;2023-06-01T07:23:30;38.17;;;28.80;;
787;SDS011;16074;42.708;23.312;2023-06-01T07:25:58;30.13;;;26.97;;
787;SDS011;16074;42.708;23.312;2023-06-01T07:28:28;38.40;;;29.87;;
787;SDS011;16074;42.708;23.312;2023-06-01T07:30:56;36.53;;;29.33;;
787;SDS011;16074;42.708;23.312;2023-06-01T07:33:29;35.47;;;29.77;;
787;SDS011;16074;42.708;23.312;2023-06-01T07:35:57;32.47;;;28.87;;
787;SDS011;16074;42.708;23.312;2023-06-01T07:38:26;30.93;;;26.90;;
787;SDS011;16074;42.708;23.312;2023-06-01T07:40:54;33.40;;;29.70;;
787;SDS011;16074;42.708;23.312;2023-06-01T07:43:23;33.17;;;29.67;;
787;SDS011;16074;42.708;23.312;2023-06-01T07:45:52;29.80;;;26.80;;
787;SDS011;16074;42.708;23.312;2023-06-01T07:48:21;33.60;;;28.10;;
787;SDS011;16074;42.708;23.312;2023-06-01T07:50:49;32.20;;;28.93;;
787;SDS011;16074;42.708;23.312;2023-06-01T07:53:18;29.77;;;26.70;;
787;SDS011;16074;42.708;23.312;2023-06-01T07:55:47;30.60;;;27.30;;
787;SDS011;16074;42.708;23.312;2023-06-01T07:58:16;31.23;;;28.00;;
787;SDS011;16074;42.708;23.312;2023-06-01T08:00:45;29.07;;;25.50;;
787;SDS011;16074;42.708;23.312;2023-06-01T08:03:15;28.47;;;25.57;;
787;SDS011;16074;42.708;23.312;2023-06-01T08:05:44;29.20;;;26.10;;
787;SDS011;16074;42.708;23.312;2023-06-01T08:08:12;33.80;;;28.37;;
787;SDS011;16074;42.708;23.312;2023-06-01T08:10:42;32.00;;;28.50;;
787;SDS011;16074;42.708;23.312;2023-06-01T08:13:10;29.70;;;26.60;;
787;SDS011;16074;42.708;23.312;2023-06-01T08:15:39;30.37;;;26.93;;
787;SDS011;16074;42.708;23.312;2023-06-01T08:18:08;28.80;;;26.10;;
787;SDS011;16074;42.708;23.312;2023-06-01T08:20:38;27.33;;;24.63;;
787;SDS011;16074;42.708;23.312;2023-06-01T08:23:06;25.10;;;22.60;;
787;SDS011;16074;42.708;23.312;2023-06-01T08:25:35;27.40;;;24.53;;
787;SDS011;16074;42.708;23.312;2023-06-01T08:28:03;24.50;;;22.20;;
787;SDS011;16074;42.708;23.312;2023-06-01T08:30:32;22.97;;;20.67;;
787;SDS011;16074;42.708;23.312;2023-06-01T08:33:00;21.37;;;19.50;;
787;SDS011;16074;42.708;23.312;2023-06-01T08:35:29;22.60;;;20.30;;
787;SDS011;16074;42.708;23.312;2023-06-01T08:38:01;21.20;;;19.23;;
787;SDS011;16074;42.708;23.312;2023-06-01T08:40:30;21.67;;;19.57;;
787;SDS011;16074;42.708;23.312;2023-06-01T08:42:59;23.17;;;21.00;;
787;SDS011;16074;42.708;23.312;2023-06-01T08:45:36;21.07;;;18.90;;
787;SDS011;16074;42.708;23.312;2023-06-01T08:48:05;21.33;;;19.40;;
787;SDS011;16074;42.708;23.312;2023-06-01T08:50:36;22.43;;;20.43;;
787;SDS011;16074;42.708;23.312;2023-06-01T08:53:06;22.93;;;20.83;;
787;SDS011;16074;42.708;23.312;2023-06-01T08:55:36;20.60;;;18.43;;
787;SDS011;16074;42.708;23.312;2023-06-01T08:58:04;21.20;;;19.03;;
787;SDS011;16074;42.708;23.312;2023-06-01T09:00:33;21.20;;;19.40;;
787;SDS011;16074;42.708;23.312;2023-06-01T09:03:03;25.30;;;20.17;;
787;SDS011;16074;42.708;23.312;2023-06-01T09:05:32;22.07;;;19.87;;
787;SDS011;16074;42.708;23.312;2023-06-01T09:08:01;21.67;;;19.40;;
787;SDS011;16074;42.708;23.312;2023-06-01T09:10:31;22.17;;;19.93;;
787;SDS011;16074;42.708;23.312;2023-06-01T09:13:00;19.70;;;18.00;;
787;SDS011;16074;42.708;23.312;2023-06-01T09:15:28;20.63;;;18.73;;
787;SDS011;16074;42.708;23.312;2023-06-01T09:18:06;19.80;;;17.63;;
787;SDS011;16074;42.708;23.312;2023-06-01T09:20:37;20.73;;;18.77;;
787;SDS011;16074;42.708;23.312;2023-06-01T09:23:05;20.40;;;18.40;;
787;SDS011;16074;42.708;23.312;2023-06-01T09:25:35;19.17;;;17.17;;
787;SDS011;16074;42.708;23.312;2023-06-01T09:28:04;20.40;;;18.60;;
787;SDS011;16074;42.708;23.312;2023-06-01T09:30:39;19.93;;;17.97;;
787;SDS011;16074;42.708;23.312;2023-06-01T09:33:10;18.93;;;17.30;;
787;SDS011;16074;42.708;23.312;2023-06-01T09:35:41;19.10;;;17.10;;
787;SDS011;16074;42.708;23.312;2023-06-01T09:38:11;18.33;;;16.70;;
787;SDS011;16074;42.708;23.312;2023-06-01T09:40:56;16.80;;;15.40;;
787;SDS011;16074;42.708;23.312;2023-06-01T09:43:26;15.17;;;13.97;;
787;SDS011;16074;42.708;23.312;2023-06-01T09:46:04;14.80;;;13.10;;
787;SDS011;16074;42.708;23.312;2023-06-01T09:48:34;13.77;;;12.57;;
787;SDS011;16074;42.708;23.312;2023-06-01T09:51:03;12.90;;;11.80;;
787;SDS011;16074;42.708;23.312;2023-06-01T09:53:41;12.40;;;11.40;;
787;SDS011;16074;42.708;23.312;2023-06-01T09:56:12;10.60;;;9.80;;
787;SDS011;16074;42.708;23.312;2023-06-01T09:58:40;10.70;;;9.77;;
787;SDS011;16074;42.708;23.312;2023-06-01T10:01:10;10.10;;;9.30;;
787;SDS011;16074;42.708;23.312;2023-06-01T10:03:40;10.60;;;9.70;;
787;SDS011;16074;42.708;23.312;2023-06-01T10:06:10;10.00;;;9.20;;
787;SDS011;16074;42.708;23.312;2023-06-01T10:08:40;9.33;;;8.40;;
787;SDS011;16074;42.708;23.312;2023-06-01T10:11:09;9.73;;;8.80;;
787;SDS011;16074;42.708;23.312;2023-06-01T10:13:39;10.33;;;9.57;;
787;SDS011;16074;42.708;23.312;2023-06-01T10:16:09;9.20;;;8.27;;
787;SDS011;16074;42.708;23.312;2023-06-01T10:18:39;8.93;;;8.20;;
787;SDS011;16074;42.708;23.312;2023-06-01T10:21:09;10.73;;;9.63;;
787;SDS011;16074;42.708;23.312;2023-06-01T10:23:37;8.53;;;7.90;;
787;SDS011;16074;42.708;23.312;2023-06-01T10:26:06;9.20;;;8.50;;
787;SDS011;16074;42.708;23.312;2023-06-01T10:28:42;13.33;;;11.93;;
787;SDS011;16074;42.708;23.312;2023-06-01T10:31:36;12.30;;;11.40;;
787;SDS011;16074;42.708;23.312;2023-06-01T10:34:06;10.13;;;9.17;;
787;SDS011;16074;42.708;23.312;2023-06-01T10:39:42;10.70;;;9.90;;
787;SDS011;16074;42.708;23.312;2023-06-01T10:48:09;9.70;;;7.50;;
787;SDS011;16074;42.708;23.312;2023-06-01T10:50:38;7.73;;;7.10;;
787;SDS011;16074;42.708;23.312;2023-06-01T10:53:23;8.87;;;8.27;;
787;SDS011;16074;42.708;23.312;2023-06-01T10:58:46;11.47;;;10.57;;
787;SDS011;16074;42.708;23.312;2023-06-01T11:01:20;11.37;;;10.27;;
787;SDS011;16074;42.708;23.312;2023-06-01T11:03:48;11.47;;;10.40;;
787;SDS011;16074;42.708;23.312;2023-06-01T11:06:29;11.00;;;10.10;;
787;SDS011;16074;42.708;23.312;2023-06-01T11:08:58;10.63;;;9.73;;
787;SDS011;16074;42.708;23.312;2023-06-01T11:14:26;8.43;;;7.80;;
787;SDS011;16074;42.708;23.312;2023-06-01T11:19:57;10.43;;;9.63;;
787;SDS011;16074;42.708;23.312;2023-06-01T11:22:33;8.53;;;7.77;;
787;SDS011;16074;42.708;23.312;2023-06-01T11:25:04;10.30;;;9.20;;
787;SDS011;16074;42.708;23.312;2023-06-01T11:27:35;8.70;;;7.60;;
787;SDS011;16074;42.708;23.312;2023-06-01T11:30:04;7.90;;;7.40;;
787;SDS011;16074;42.708;23.312;2023-06-01T11:32:35;10.47;;;9.60;;
787;SDS011;16074;42.708;23.312;2023-06-01T11:35:17;7.60;;;7.00;;
787;SDS011;16074;42.708;23.312;2023-06-01T11:37:53;8.73;;;7.83;;
787;SDS011;16074;42.708;23.312;2023-06-01T11:40:23;7.00;;;6.50;;
787;SDS011;16074;42.708;23.312;2023-06-01T11:42:57;8.50;;;7.80;;
787;SDS011;16074;42.708;23.312;2023-06-01T11:45:25;8.50;;;7.73;;
787;SDS011;16074;42.708;23.312;2023-06-01T11:47:56;7.00;;;6.30;;
787;SDS011;16074;42.708;23.312;2023-06-01T11:50:25;6.30;;;5.87;;
787;SDS011;16074;42.708;23.312;2023-06-01T11:52:55;6.13;;;5.63;;
787;SDS011;16074;42.708;23.312;2023-06-01T11:55:24;5.00;;;4.60;;
787;SDS011;16074;42.708;23.312;2023-06-01T11:57:53;5.53;;;5.00;;
787;SDS011;16074;42.708;23.312;2023-06-01T12:00:21;4.60;;;4.30;;
787;SDS011;16074;42.708;23.312;2023-06-01T12:03:05;6.10;;;5.70;;
787;SDS011;16074;42.708;23.312;2023-06-01T12:05:39;6.30;;;5.80;;
787;SDS011;16074;42.708;23.312;2023-06-01T12:08:12;6.10;;;5.60;;
787;SDS011;16074;42.708;23.312;2023-06-01T12:10:42;8.37;;;7.53;;
787;SDS011;16074;42.708;23.312;2023-06-01T12:13:13;8.73;;;6.33;;
787;SDS011;16074;42.708;23.312;2023-06-01T12:15:42;7.40;;;6.80;;
787;SDS011;16074;42.708;23.312;2023-06-01T12:18:12;10.50;;;7.07;;
787;SDS011;16074;42.708;23.312;2023-06-01T12:20:41;6.73;;;6.20;;
787;SDS011;16074;42.708;23.312;2023-06-01T12:23:12;7.40;;;6.80;;
787;SDS011;16074;42.708;23.312;2023-06-01T12:25:49;7.17;;;6.50;;
787;SDS011;16074;42.708;23.312;2023-06-01T12:28:19;7.37;;;6.77;;
787;SDS011;16074;42.708;23.312;2023-06-01T12:30:48;6.90;;;6.13;;
787;SDS011;16074;42.708;23.312;2023-06-01T12:33:32;7.20;;;6.50;;
787;SDS011;16074;42.708;23.312;2023-06-01T12:36:01;6.60;;;6.10;;
787;SDS011;16074;42.708;23.312;2023-06-01T12:38:34;8.13;;;7.37;;
787;SDS011;16074;42.708;23.312;2023-06-01T12:41:06;7.67;;;7.07;;
787;SDS011;16074;42.708;23.312;2023-06-01T12:43:35;10.27;;;8.43;;
787;SDS011;16074;42.708;23.312;2023-06-01T12:46:04;8.50;;;7.80;;
787;SDS011;16074;42.708;23.312;2023-06-01T12:48:35;9.43;;;8.47;;
787;SDS011;16074;42.708;23.312;2023-06-01T12:51:04;8.57;;;7.73;;
787;SDS011;16074;42.708;23.312;2023-06-01T12:53:34;10.43;;;9.53;;
787;SDS011;16074;42.708;23.312;2023-06-01T12:56:03;10.20;;;9.33;;
787;SDS011;16074;42.708;23.312;2023-06-01T12:58:33;14.33;;;11.13;;
787;SDS011;16074;42.708;23.312;2023-06-01T13:01:01;7.87;;;7.27;;
787;SDS011;16074;42.708;23.312;2023-06-01T13:03:30;8.23;;;7.63;;
787;SDS011;16074;42.708;23.312;2023-06-01T13:06:00;9.80;;;8.73;;
787;SDS011;16074;42.708;23.312;2023-06-01T13:08:29;8.07;;;7.47;;
787;SDS011;16074;42.708;23.312;2023-06-01T13:10:57;8.67;;;7.97;;
787;SDS011;16074;42.708;23.312;2023-06-01T13:13:25;9.53;;;8.63;;
787;SDS011;16074;42.708;23.312;2023-06-01T13:15:54;8.40;;;7.70;;
787;SDS011;16074;42.708;23.312;2023-06-01T13:18:22;10.93;;;8.90;;
787;SDS011;16074;42.708;23.312;2023-06-01T13:20:51;9.70;;;8.80;;
787;SDS011;16074;42.708;23.312;2023-06-01T13:23:20;10.10;;;9.13;;
787;SDS011;16074;42.708;23.312;2023-06-01T13:25:49;10.27;;;8.70;;
787;SDS011;16074;42.708;23.312;2023-06-01T13:28:17;10.43;;;9.43;;
787;SDS011;16074;42.708;23.312;2023-06-01T13:30:46;9.47;;;8.57;;
787;SDS011;16074;42.708;23.312;2023-06-01T13:33:14;9.67;;;8.77;;
787;SDS011;16074;42.708;23.312;2023-06-01T13:35:43;8.83;;;8.13;;
787;SDS011;16074;42.708;23.312;2023-06-01T13:38:12;8.03;;;7.43;;
787;SDS011;16074;42.708;23.312;2023-06-01T13:40:41;8.27;;;7.50;;
787;SDS011;16074;42.708;23.312;2023-06-01T13:43:10;7.03;;;6.50;;
787;SDS011;16074;42.708;23.312;2023-06-01T13:45:38;9.33;;;7.27;;
787;SDS011;16074;42.708;23.312;2023-06-01T13:48:07;9.57;;;7.60;;
787;SDS011;16074;42.708;23.312;2023-06-01T13:50:38;7.70;;;7.00;;
787;SDS011;16074;42.708;23.312;2023-06-01T13:53:06;6.90;;;6.40;;
787;SDS011;16074;42.708;23.312;2023-06-01T13:55:35;7.30;;;6.70;;
787;SDS011;16074;42.708;23.312;2023-06-01T13:58:06;8.10;;;7.30;;
787;SDS011;16074;42.708;23.312;2023-06-01T14:00:35;7.20;;;6.47;;
787;SDS011;16074;42.708;23.312;2023-06-01T14:03:03;6.93;;;6.10;;
787;SDS011;16074;42.708;23.312;2023-06-01T14:05:31;11.33;;;6.90;;
787;SDS011;16074;42.708;23.312;2023-06-01T14:08:16;7.27;;;6.67;;
787;SDS011;16074;42.708;23.312;2023-06-01T14:10:44;6.60;;;6.10;;
787;SDS011;16074;42.708;23.312;2023-06-01T14:13:14;7.20;;;6.00;;
787;SDS011;16074;42.708;23.312;2023-06-01T14:15:42;6.40;;;5.83;;
787;SDS011;16074;42.708;23.312;2023-06-01T14:18:11;7.23;;;6.50;;
787;SDS011;16074;42.708;23.312;2023-06-01T14:20:39;8.47;;;6.40;;
787;SDS011;16074;42.708;23.312;2023-06-01T14:23:07;7.37;;;6.67;;
787;SDS011;16074;42.708;23.312;2023-06-01T14:25:38;8.80;;;5.97;;
787;SDS011;16074;42.708;23.312;2023-06-01T14:28:06;6.63;;;6.13;;
787;SDS011;16074;42.708;23.312;2023-06-01T14:30:36;9.50;;;6.47;;
787;SDS011;16074;42.708;23.312;2023-06-01T14:33:04;6.87;;;6.20;;
787;SDS011;16074;42.708;23.312;2023-06-01T14:35:33;7.10;;;6.60;;
787;SDS011;16074;42.708;23.312;2023-06-01T14:38:01;6.73;;;5.90;;
787;SDS011;16074;42.708;23.312;2023-06-01T14:40:29;7.17;;;6.57;;
787;SDS011;16074;42.708;23.312;2023-06-01T14:42:58;7.30;;;6.53;;
787;SDS011;16074;42.708;23.312;2023-06-01T14:45:26;8.40;;;6.37;;
787;SDS011;16074;42.708;23.312;2023-06-01T14:47:56;8.83;;;6.10;;
787;SDS011;16074;42.708;23.312;2023-06-01T14:50:24;7.77;;;7.17;;
787;SDS011;16074;42.708;23.312;2023-06-01T14:52:53;8.37;;;7.60;;
787;SDS011;16074;42.708;23.312;2023-06-01T14:55:26;7.40;;;6.90;;
787;SDS011;16074;42.708;23.312;2023-06-01T14:57:54;9.00;;;8.10;;
787;SDS011;16074;42.708;23.312;2023-06-01T15:00:23;9.30;;;7.30;;
787;SDS011;16074;42.708;23.312;2023-06-01T15:02:51;8.60;;;7.90;;
787;SDS011;16074;42.708;23.312;2023-06-01T15:05:21;8.73;;;8.03;;
787;SDS011;16074;42.708;23.312;2023-06-01T15:07:50;7.83;;;7.03;;
787;SDS011;16074;42.708;23.312;2023-06-01T15:10:18;8.67;;;8.00;;
787;SDS011;16074;42.708;23.312;2023-06-01T15:12:47;8.27;;;7.57;;
787;SDS011;16074;42.708;23.312;2023-06-01T15:15:15;8.60;;;7.53;;
787;SDS011;16074;42.708;23.312;2023-06-01T15:17:43;7.87;;;7.27;;
787;SDS011;16074;42.708;23.312;2023-06-01T15:20:12;8.80;;;8.00;;